Time;durP1;ratioP1;P1;durP2;ratioP2;P2;SDS_P1;SDS_P2;PMS_P1;PMS_P2;Temp;Humidity;BMP_temperature;BMP_pressure;BME280_temperature;BME280_humidity;BME280_pressure;Samples;Min_cycle;Max_cycle;Signal;HPM_P1;HPM_P2
2023/06/23 04:06:47;;;;;;;;;40.00;34.00;;;;;;;;6469039;47;9016;-60
2023/06/23 04:12:53;;;;;;;;;40.33;34.33;;;;;;;;6490278;39;9606;-59
2023/06/23 04:30:07;;;;;;;;;41.00;34.00;;;;;;;;6335373;36;10000807;-60
2023/06/23 04:36:21;;;;;;;;;36.00;33.33;;;;;;;;6491582;39;9529;-59
2023/06/23 04:42:27;;;;;;;;;38.33;35.00;;;;;;;;6492896;39;9033;-59
2023/06/23 04:48:40;;;;;;;;;40.00;36.67;;;;;;;;6491477;46;8910;-59
2023/06/23 04:54:46;;;;;;;;;39.67;34.67;;;;;;;;6493206;31;8868;-60
2023/06/23 05:00:50;;;;;;;;;37.00;32.33;;;;;;;;6493308;31;8870;-60
2023/06/23 05:06:54;;;;;;;;;30.75;24.25;;;;;;;;6491507;46;8964;-59
2023/06/23 05:13:00;;;;;;;;;36.75;32.25;;;;;;;;6492058;39;8852;-58
2023/06/23 05:19:06;;;;;;;;;34.33;32.67;;;;;;;;6491539;46;8866;-61
2023/06/23 05:25:10;;;;;;;;;34.75;32.00;;;;;;;;6492808;39;8935;-59
2023/06/23 05:31:17;;;;;;;;;32.50;31.75;;;;;;;;6491980;39;8926;-60
2023/06/23 05:37:22;;;;;;;;;35.00;32.25;;;;;;;;6411694;31;5001175;-60
2023/06/23 05:43:24;;;;;;;;;35.75;32.00;;;;;;;;6488520;46;8911;-61
2023/06/23 05:49:35;;;;;;;;;34.25;31.75;;;;;;;;6489807;31;8869;-59
2023/06/23 05:55:45;;;;;;;;;37.25;32.75;;;;;;;;6491707;46;8799;-62
2023/06/23 06:01:54;;;;;;;;;36.75;33.75;;;;;;;;6490274;39;8909;-61
2023/06/23 06:07:59;;;;;;;;;33.75;29.75;;;;;;;;6491103;39;8923;-59
2023/06/23 06:14:09;;;;;;;;;33.25;30.75;;;;;;;;6491485;39;8895;-60
2023/06/23 06:20:14;;;;;;;;;39.25;33.00;;;;;;;;6491004;39;9071;-61
2023/06/23 06:26:20;;;;;;;;;40.25;34.00;;;;;;;;6491862;46;8931;-60
2023/06/23 06:32:29;;;;;;;;;34.25;32.00;;;;;;;;6490765;39;8977;-60
2023/06/23 06:38:35;;;;;;;;;38.75;31.25;;;;;;;;6491650;39;8843;-61
2023/06/23 06:44:41;;;;;;;;;36.00;33.00;;;;;;;;6490603;39;8944;-60
2023/06/23 06:50:45;;;;;;;;;33.50;32.25;;;;;;;;6490237;31;8860;-61
2023/06/23 06:56:54;;;;;;;;;29.25;28.25;;;;;;;;6491056;39;8897;-60
2023/06/23 07:02:58;;;;;;;;;38.25;32.75;;;;;;;;6489846;39;8934;-61
2023/06/23 07:09:02;;;;;;;;;35.75;32.25;;;;;;;;6490195;39;8846;-60
2023/06/23 07:15:09;;;;;;;;;35.25;33.00;;;;;;;;6489053;39;8964;-60
2023/06/23 07:21:14;;;;;;;;;34.75;30.50;;;;;;;;6491329;39;8857;-60
2023/06/23 07:27:18;;;;;;;;;37.00;34.00;;;;;;;;6491205;31;8970;-61
2023/06/23 07:33:21;;;;;;;;;36.00;32.25;;;;;;;;6490308;46;8881;-61
2023/06/23 07:39:24;;;;;;;;;35.50;31.50;;;;;;;;6490825;39;8859;-59
2023/06/23 07:45:27;;;;;;;;;38.50;33.75;;;;;;;;6490866;31;8885;-60
2023/06/23 07:51:30;;;;;;;;;28.00;27.75;;;;;;;;6490431;39;8919;-59
2023/06/23 07:57:33;;;;;;;;;31.50;29.25;;;;;;;;6490571;39;8862;-61
2023/06/23 08:03:35;;;;;;;;;31.67;30.33;;;;;;;;6489564;39;8978;-59
2023/06/23 08:09:38;;;;;;;;;33.50;29.25;;;;;;;;6492624;39;8990;-61
2023/06/23 08:15:47;;;;;;;;;30.75;30.25;;;;;;;;6491988;39;9492;-59
2023/06/23 08:21:50;;;;;;;;;31.00;30.00;;;;;;;;6491982;46;8988;-61
2023/06/23 08:27:53;;;;;;;;;28.25;27.25;;;;;;;;6492349;39;8959;-59
2023/06/23 08:33:59;;;;;;;;;32.00;30.25;;;;;;;;6490488;31;8854;-60
2023/06/23 08:40:05;;;;;;;;;36.50;33.75;;;;;;;;6489737;39;8926;-59
2023/06/23 08:46:14;;;;;;;;;30.50;29.50;;;;;;;;6489072;46;8909;-62
2023/06/23 08:52:26;;;;;;;;;29.25;29.25;;;;;;;;6490107;31;8965;-59
2023/06/23 08:58:29;;;;;;;;;30.00;29.00;;;;;;;;6490000;46;9000;-59
2023/06/23 09:04:31;;;;;;;;;28.00;27.00;;;;;;;;6490550;39;8965;-60
2023/06/23 09:10:36;;;;;;;;;29.25;28.50;;;;;;;;6490197;39;8881;-59
2023/06/23 09:16:42;;;;;;;;;26.25;24.50;;;;;;;;6490512;31;9002;-58
2023/06/23 09:22:47;;;;;;;;;30.75;27.50;;;;;;;;6489806;46;9895;-60
2023/06/23 09:28:52;;;;;;;;;33.50;31.00;;;;;;;;6489454;39;9005;-59
2023/06/23 09:34:57;;;;;;;;;29.50;28.00;;;;;;;;6490094;31;8904;-58
2023/06/23 09:41:20;;;;;;;;;30.50;29.00;;;;;;;;6489644;31;8973;-59
2023/06/23 09:47:26;;;;;;;;;29.00;26.50;;;;;;;;6489778;46;8933;-59
2023/06/23 09:53:34;;;;;;;;;24.75;24.50;;;;;;;;6489882;39;8855;-59
2023/06/23 09:59:39;;;;;;;;;27.50;26.50;;;;;;;;6490181;39;8937;-58
2023/06/23 10:05:57;;;;;;;;;29.25;28.75;;;;;;;;6489272;39;8915;-60
2023/06/23 10:12:00;;;;;;;;;28.75;25.75;;;;;;;;6399825;36;5001066;-60
2023/06/23 10:18:04;;;;;;;;;30.25;30.00;;;;;;;;6488966;39;8875;-60
2023/06/23 10:24:15;;;;;;;;;28.00;27.25;;;;;;;;6489864;31;8885;-61
2023/06/23 10:30:22;;;;;;;;;25.00;25.00;;;;;;;;6552801;31;8923;-60
2023/06/23 10:36:30;;;;;;;;;29.00;28.25;;;;;;;;6488785;39;8901;-58
2023/06/23 10:42:38;;;;;;;;;30.00;29.75;;;;;;;;6489488;39;8883;-60
2023/06/23 10:48:43;;;;;;;;;25.50;25.50;;;;;;;;6487623;46;8870;-58
2023/06/23 10:54:46;;;;;;;;;26.00;23.75;;;;;;;;6488056;31;8990;-57
2023/06/23 11:01:00;;;;;;;;;54.00;45.50;;;;;;;;6488388;39;8944;-63
2023/06/23 11:07:17;;;;;;;;;28.25;28.25;;;;;;;;6488772;39;10052;-63
2023/06/23 11:13:24;;;;;;;;;31.75;29.75;;;;;;;;6487115;31;9035;-62
2023/06/23 11:19:28;;;;;;;;;25.00;24.00;;;;;;;;6488076;31;8951;-60
2023/06/23 11:25:32;;;;;;;;;32.25;30.25;;;;;;;;6487950;39;8972;-59
2023/06/23 11:32:17;;;;;;;;;23.50;22.50;;;;;;;;6488755;31;8911;-59
2023/06/23 11:38:21;;;;;;;;;28.00;28.00;;;;;;;;6487520;39;8874;-61
2023/06/23 11:44:26;;;;;;;;;31.50;28.75;;;;;;;;6488503;31;8909;-62
2023/06/23 11:50:28;;;;;;;;;27.00;26.50;;;;;;;;6488068;46;8893;-61
2023/06/23 11:56:34;;;;;;;;;33.00;29.75;;;;;;;;6488125;47;8875;-61
2023/06/23 12:02:44;;;;;;;;;26.50;26.00;;;;;;;;6487808;39;9624;-61
2023/06/23 12:08:54;;;;;;;;;33.50;31.25;;;;;;;;6487798;31;8925;-62
2023/06/23 12:15:01;;;;;;;;;23.50;23.50;;;;;;;;6487755;39;8913;-60
2023/06/23 12:21:06;;;;;;;;;25.50;25.25;;;;;;;;6487112;39;8891;-62
2023/06/23 12:27:12;;;;;;;;;26.75;25.75;;;;;;;;6487315;39;8955;-61
2023/06/23 12:33:17;;;;;;;;;23.50;23.00;;;;;;;;6487464;47;8895;-60
2023/06/23 12:39:26;;;;;;;;;26.25;26.25;;;;;;;;6486465;47;8877;-60
2023/06/23 12:45:29;;;;;;;;;26.00;24.50;;;;;;;;6487395;36;8885;-61
2023/06/23 12:51:37;;;;;;;;;26.25;23.50;;;;;;;;6487870;39;8974;-61
2023/06/23 12:57:44;;;;;;;;;26.00;24.75;;;;;;;;6488966;39;8900;-60
2023/06/23 13:03:46;;;;;;;;;22.25;21.25;;;;;;;;6489120;39;8911;-60
2023/06/23 13:09:51;;;;;;;;;26.75;26.75;;;;;;;;6490135;39;9007;-62
2023/06/23 13:15:57;;;;;;;;;23.75;23.75;;;;;;;;6488779;39;8863;-59
2023/06/23 13:22:01;;;;;;;;;27.25;25.75;;;;;;;;6489449;46;9492;-61
2023/06/23 13:28:07;;;;;;;;;26.00;25.25;;;;;;;;6488480;39;8966;-61
2023/06/23 13:34:09;;;;;;;;;18.25;17.00;;;;;;;;6535336;36;8917;-60
2023/06/23 13:40:16;;;;;;;;;20.50;20.50;;;;;;;;6490649;39;8851;-61
2023/06/23 13:46:26;;;;;;;;;18.75;18.00;;;;;;;;6489032;39;9595;-59
2023/06/23 13:52:28;;;;;;;;;25.00;23.75;;;;;;;;6489015;46;8895;-60
2023/06/23 13:58:31;;;;;;;;;20.25;20.25;;;;;;;;6489033;46;8905;-59
2023/06/23 14:04:33;;;;;;;;;18.75;18.00;;;;;;;;6488410;46;8927;-55
2023/06/23 14:10:36;;;;;;;;;22.75;22.75;;;;;;;;6488839;46;8869;-57
2023/06/23 14:16:40;;;;;;;;;22.00;21.25;;;;;;;;6489445;39;8909;-58
2023/06/23 14:22:43;;;;;;;;;24.50;24.50;;;;;;;;6489782;39;8936;-57
2023/06/23 14:28:45;;;;;;;;;25.00;24.00;;;;;;;;6489617;39;9649;-56
2023/06/23 14:34:50;;;;;;;;;28.50;26.25;;;;;;;;6489746;39;8905;-56
2023/06/23 14:40:54;;;;;;;;;23.75;23.25;;;;;;;;6489306;39;8891;-56
2023/06/23 14:46:58;;;;;;;;;25.50;24.50;;;;;;;;6489046;46;8933;-56
2023/06/23 14:53:01;;;;;;;;;29.00;27.50;;;;;;;;6489028;39;8887;-59
2023/06/23 14:59:06;;;;;;;;;23.33;22.33;;;;;;;;6488990;39;8868;-59
2023/06/23 15:05:10;;;;;;;;;21.00;21.00;;;;;;;;6488588;46;9010;-57
2023/06/23 15:11:13;;;;;;;;;20.50;20.50;;;;;;;;6488610;39;8957;-59
2023/06/23 15:17:18;;;;;;;;;26.50;25.00;;;;;;;;6487649;39;8954;-57
2023/06/23 15:23:23;;;;;;;;;26.25;24.25;;;;;;;;6489117;46;8927;-57
2023/06/23 15:29:28;;;;;;;;;24.75;24.75;;;;;;;;6489709;39;9795;-57
2023/06/23 15:35:30;;;;;;;;;32.75;31.75;;;;;;;;6489302;39;8905;-57
2023/06/23 15:41:33;;;;;;;;;32.50;31.75;;;;;;;;6489062;39;8941;-55
2023/06/23 15:47:37;;;;;;;;;30.25;26.75;;;;;;;;6488726;39;8861;-59
2023/06/23 15:53:40;;;;;;;;;30.50;28.50;;;;;;;;6489312;39;8904;-58
2023/06/23 15:59:43;;;;;;;;;24.50;24.50;;;;;;;;6489334;31;8884;-58
2023/06/23 16:05:56;;;;;;;;;27.00;26.75;;;;;;;;6488434;47;8971;-54
2023/06/23 16:12:00;;;;;;;;;28.75;27.25;;;;;;;;6488421;39;8900;-58
2023/06/23 16:18:03;;;;;;;;;27.75;27.25;;;;;;;;6488544;31;8883;-58
2023/06/23 16:24:06;;;;;;;;;26.00;25.25;;;;;;;;6487603;47;8857;-60
2023/06/23 16:30:13;;;;;;;;;28.50;25.75;;;;;;;;6489935;39;8947;-57
2023/06/23 16:36:17;;;;;;;;;27.75;26.25;;;;;;;;6491003;39;8895;-57
2023/06/23 16:42:24;;;;;;;;;26.00;24.75;;;;;;;;6489021;39;8919;-57
2023/06/23 16:48:27;;;;;;;;;25.50;24.50;;;;;;;;6489139;39;8933;-57
2023/06/23 16:54:34;;;;;;;;;22.25;22.25;;;;;;;;6490377;39;8878;-58
2023/06/23 17:00:37;;;;;;;;;29.25;28.25;;;;;;;;6490234;39;8941;-58
2023/06/23 17:06:44;;;;;;;;;29.50;28.00;;;;;;;;6490428;39;9514;-60
2023/06/23 17:12:47;;;;;;;;;29.75;27.75;;;;;;;;6490201;31;9513;-58
2023/06/23 17:18:50;;;;;;;;;30.75;29.50;;;;;;;;6488782;39;8938;-57
2023/06/23 17:24:54;;;;;;;;;28.25;25.75;;;;;;;;6489599;39;8971;-58
2023/06/23 17:30:58;;;;;;;;;27.00;23.50;;;;;;;;6489640;46;8959;-54
2023/06/23 17:37:04;;;;;;;;;25.50;24.25;;;;;;;;6490265;31;8984;-58
2023/06/23 17:43:07;;;;;;;;;25.50;23.25;;;;;;;;6489633;46;8907;-56
2023/06/23 17:49:11;;;;;;;;;25.75;25.50;;;;;;;;6489702;39;9631;-58
2023/06/23 17:55:16;;;;;;;;;28.00;25.00;;;;;;;;6489809;39;9693;-58
2023/06/23 18:01:19;;;;;;;;;24.75;24.25;;;;;;;;6489857;39;8983;-56
2023/06/23 18:07:23;;;;;;;;;26.75;23.00;;;;;;;;6489399;39;8879;-56
2023/06/23 18:13:29;;;;;;;;;27.25;26.25;;;;;;;;6488465;46;8873;-57
2023/06/23 18:19:32;;;;;;;;;33.00;32.00;;;;;;;;6489699;39;8859;-58
2023/06/23 18:25:35;;;;;;;;;30.50;28.75;;;;;;;;6489794;39;8920;-54
2023/06/23 18:31:40;;;;;;;;;31.25;26.75;;;;;;;;6488670;39;8890;-56
2023/06/23 18:37:44;;;;;;;;;31.75;30.75;;;;;;;;6489751;39;8896;-57
2023/06/23 18:43:50;;;;;;;;;26.00;25.75;;;;;;;;6489160;39;9645;-57
2023/06/23 18:49:54;;;;;;;;;31.75;31.00;;;;;;;;6488652;46;8905;-54
2023/06/23 18:55:58;;;;;;;;;27.00;26.25;;;;;;;;6488831;39;8887;-58
2023/06/23 19:02:03;;;;;;;;;28.50;28.25;;;;;;;;6488917;39;8937;-58
2023/06/23 19:08:06;;;;;;;;;31.00;31.00;;;;;;;;6489555;31;8875;-56
2023/06/23 19:14:08;;;;;;;;;31.75;30.00;;;;;;;;6487830;31;8941;-57
2023/06/23 19:20:12;;;;;;;;;28.75;27.25;;;;;;;;6488707;46;8915;-57
2023/06/23 19:26:15;;;;;;;;;34.50;32.00;;;;;;;;6490152;31;8960;-57
2023/06/23 19:32:20;;;;;;;;;33.75;30.75;;;;;;;;6488125;46;8926;-56
2023/06/23 19:38:23;;;;;;;;;37.75;31.75;;;;;;;;6488118;46;8923;-58
2023/06/23 19:44:26;;;;;;;;;31.75;30.75;;;;;;;;6488722;46;8875;-57
2023/06/23 19:50:29;;;;;;;;;29.50;28.50;;;;;;;;6488568;39;8933;-58
2023/06/23 19:56:32;;;;;;;;;29.00;29.00;;;;;;;;6488488;31;8844;-59
2023/06/23 20:02:35;;;;;;;;;32.25;30.75;;;;;;;;6487863;39;8933;-57
2023/06/23 20:08:39;;;;;;;;;33.50;30.50;;;;;;;;6489492;39;8978;-55
2023/06/23 20:14:42;;;;;;;;;28.50;26.50;;;;;;;;6490128;39;8889;-57
2023/06/23 20:20:46;;;;;;;;;27.50;27.25;;;;;;;;6489403;46;8969;-56
2023/06/23 20:26:49;;;;;;;;;29.67;27.67;;;;;;;;6490512;39;8986;-58
2023/06/23 20:32:51;;;;;;;;;22.75;22.25;;;;;;;;6490213;46;8991;-55
2023/06/23 20:38:54;;;;;;;;;23.25;23.25;;;;;;;;6490277;39;8889;-58
2023/06/23 20:44:57;;;;;;;;;33.00;27.50;;;;;;;;6488888;39;8930;-57
2023/06/23 20:50:59;;;;;;;;;28.25;27.75;;;;;;;;6490782;39;8929;-56
2023/06/23 20:57:03;;;;;;;;;25.50;24.00;;;;;;;;6489892;39;9478;-57
2023/06/23 21:03:07;;;;;;;;;23.50;23.50;;;;;;;;6488989;46;8941;-56
2023/06/23 21:09:14;;;;;;;;;24.50;24.25;;;;;;;;6490110;39;8927;-55
2023/06/23 21:15:18;;;;;;;;;26.75;26.50;;;;;;;;6488407;39;9000;-55
2023/06/23 21:21:21;;;;;;;;;29.50;27.50;;;;;;;;6490332;31;8895;-55
2023/06/23 21:27:24;;;;;;;;;28.00;26.50;;;;;;;;6489725;46;9038;-55
2023/06/23 21:33:27;;;;;;;;;26.75;25.75;;;;;;;;6507130;36;8920;-56
2023/06/23 21:39:29;;;;;;;;;28.00;23.75;;;;;;;;6489234;39;8960;-57
2023/06/23 21:45:31;;;;;;;;;29.25;28.75;;;;;;;;6489176;39;8893;-55
2023/06/23 21:51:34;;;;;;;;;31.00;30.00;;;;;;;;6488921;39;8913;-57
2023/06/23 21:57:37;;;;;;;;;26.25;25.25;;;;;;;;6488763;46;8951;-57
2023/06/23 22:03:39;;;;;;;;;29.50;28.75;;;;;;;;6488391;39;8926;-56
2023/06/23 22:09:42;;;;;;;;;29.75;26.75;;;;;;;;6489267;39;9038;-54
2023/06/23 22:15:46;;;;;;;;;31.50;30.00;;;;;;;;6489667;39;9058;-55
2023/06/23 22:21:50;;;;;;;;;29.50;28.00;;;;;;;;6489606;31;9698;-56
2023/06/23 22:27:53;;;;;;;;;24.67;23.67;;;;;;;;6488827;46;9006;-55
2023/06/23 22:33:56;;;;;;;;;34.50;28.25;;;;;;;;6488706;39;8896;-57
2023/06/23 22:39:58;;;;;;;;;23.50;23.50;;;;;;;;6488284;39;9025;-59
2023/06/23 22:46:01;;;;;;;;;30.25;28.00;;;;;;;;6488810;31;8912;-55
2023/06/23 22:52:08;;;;;;;;;28.25;28.25;;;;;;;;6488779;39;8964;-55
2023/06/23 22:58:11;;;;;;;;;28.25;26.00;;;;;;;;6488979;46;8916;-57
2023/06/23 23:04:13;;;;;;;;;32.25;30.00;;;;;;;;6488124;46;8906;-57
2023/06/23 23:10:17;;;;;;;;;26.75;25.75;;;;;;;;6488561;39;8849;-55
2023/06/23 23:16:25;;;;;;;;;29.75;28.50;;;;;;;;6487384;31;8937;-55
2023/06/23 23:22:27;;;;;;;;;24.25;23.25;;;;;;;;6487576;39;9048;-58
2023/06/23 23:28:31;;;;;;;;;26.25;26.25;;;;;;;;6489703;31;9045;-57
2023/06/23 23:34:34;;;;;;;;;27.75;27.00;;;;;;;;6488590;39;8949;-56
2023/06/23 23:40:36;;;;;;;;;27.75;26.50;;;;;;;;6487929;46;8941;-52
2023/06/23 23:46:39;;;;;;;;;24.75;24.25;;;;;;;;6487707;39;8911;-56
2023/06/23 23:52:44;;;;;;;;;23.00;21.75;;;;;;;;6488884;31;8965;-56
2023/06/23 23:58:47;;;;;;;;;27.25;26.00;;;;;;;;6488048;39;8947;-55
